createdAt,value
2022-12-05T00:00:46.707Z,27.85
2022-12-05T00:05:48.298Z,27.95
2022-12-05T00:10:49.822Z,26.92
2022-12-05T00:15:51.371Z,33.50
2022-12-05T00:20:52.959Z,26.67
2022-12-05T00:25:54.453Z,29.08
2022-12-05T00:30:56.032Z,28.00
2022-12-05T00:36:05.522Z,28.98
2022-12-05T00:41:10.108Z,32.10
2022-12-05T00:46:17.392Z,27.77
2022-12-05T00:51:25.267Z,30.75
2022-12-05T00:56:29.392Z,34.72
2022-12-05T01:01:39.854Z,33.85
2022-12-05T01:06:42.329Z,37.97
2022-12-05T01:11:44.559Z,36.15
2022-12-05T01:16:48.130Z,32.80
2022-12-05T01:21:49.881Z,32.78
2022-12-05T01:26:51.611Z,29.33
2022-12-05T01:31:54.216Z,37.88
2022-12-05T01:36:55.729Z,31.80
2022-12-05T01:41:57.218Z,40.65
2022-12-05T01:46:58.706Z,38.20
2022-12-05T01:52:10.382Z,36.83
2022-12-05T01:57:13.835Z,33.63
2022-12-05T02:02:15.670Z,45.42
2022-12-05T02:07:19.212Z,39.40
2022-12-05T02:12:21.814Z,35.40
2022-12-05T02:17:29.157Z,32.05
2022-12-05T02:23:08.148Z,32.58
2022-12-05T02:28:09.568Z,38.08
2022-12-05T02:33:29.936Z,35.28
2022-12-05T02:38:35.943Z,36.50
2022-12-05T02:43:48.264Z,26.13
2022-12-05T02:48:54.249Z,37.75
2022-12-05T02:53:59.571Z,23.47
2022-12-05T02:59:01.554Z,33.90
2022-12-05T03:04:05.040Z,33.28
2022-12-05T03:09:22.301Z,33.97
2022-12-05T03:14:28.835Z,36.65
2022-12-05T03:19:37.095Z,33.97
2022-12-05T03:24:40.649Z,36.35
2022-12-05T03:29:54.005Z,33.75
2022-12-05T03:35:03.541Z,34.67
2022-12-05T03:40:13.300Z,32.97
2022-12-05T03:45:25.061Z,35.05
2022-12-05T03:50:29.119Z,42.08
2022-12-05T03:55:35.695Z,34.08
2022-12-05T04:00:43.149Z,39.50
2022-12-05T04:05:59.097Z,38.58
2022-12-05T04:11:05.176Z,54.30
2022-12-05T04:16:20.545Z,46.17
2022-12-05T04:21:29.528Z,40.00
2022-12-05T04:26:32.577Z,46.20
2022-12-05T04:31:43.886Z,47.45
2022-12-05T04:36:54.152Z,43.28
2022-12-05T04:42:06.354Z,54.38
2022-12-05T04:47:10.732Z,44.33
2022-12-05T04:52:13.289Z,48.25
2022-12-05T04:57:53.737Z,46.78
2022-12-05T05:03:02.971Z,43.72
2022-12-05T05:08:04.917Z,57.83
2022-12-05T05:13:06.537Z,51.03
2022-12-05T05:18:09.808Z,57.78
2022-12-05T05:23:11.327Z,52.03
2022-12-05T05:28:12.808Z,63.75
2022-12-05T05:33:14.587Z,56.95
2022-12-05T05:38:16.069Z,43.45
2022-12-05T05:43:17.546Z,59.33
2022-12-05T05:48:19.038Z,50.38
2022-12-05T05:53:20.542Z,50.92
2022-12-05T05:58:22.442Z,57.85
2022-12-05T06:03:24.126Z,55.00
2022-12-05T06:08:25.885Z,64.18
2022-12-05T06:13:27.558Z,51.42
2022-12-05T06:18:29.037Z,54.70
2022-12-05T06:23:30.540Z,56.03
2022-12-05T06:28:32.522Z,55.83
2022-12-05T06:33:34.060Z,58.40
2022-12-05T06:38:39.154Z,55.95
2022-12-05T06:43:43.694Z,47.95
2022-12-05T06:48:45.212Z,65.68
2022-12-05T06:53:47.019Z,60.70
2022-12-05T06:58:49.995Z,66.78
2022-12-05T07:03:51.509Z,63.92
2022-12-05T07:08:53.054Z,64.55
2022-12-05T07:13:54.826Z,58.97
2022-12-05T07:18:56.360Z,51.70
2022-12-05T07:23:57.852Z,63.78
2022-12-05T07:28:59.399Z,60.83
2022-12-05T07:34:00.973Z,63.58
2022-12-05T07:39:02.717Z,59.22
2022-12-05T07:44:04.304Z,59.55
2022-12-05T07:49:06.640Z,51.85
2022-12-05T07:54:08.227Z,71.10
2022-12-05T07:59:09.715Z,68.88
2022-12-05T08:04:15.287Z,59.60
2022-12-05T08:09:17.177Z,61.63
2022-12-05T08:14:18.809Z,57.53
2022-12-05T08:19:20.307Z,57.20
2022-12-05T08:24:21.864Z,68.82
2022-12-05T08:29:23.357Z,58.85
2022-12-05T08:34:24.905Z,67.35
2022-12-05T08:39:26.428Z,54.78
2022-12-05T08:44:28.061Z,52.92
2022-12-05T08:49:29.517Z,48.88
2022-12-05T08:54:31.096Z,46.47
2022-12-05T08:59:32.705Z,43.55
2022-12-05T09:04:34.184Z,51.08
2022-12-05T09:09:35.898Z,40.38
2022-12-05T09:14:37.489Z,45.63
2022-12-05T09:19:39.020Z,36.05
2022-12-05T09:24:40.512Z,41.92
2022-12-05T09:29:42.062Z,53.47
2022-12-05T09:34:43.613Z,49.58
2022-12-05T09:39:45.136Z,43.35
2022-12-05T09:45:11.141Z,46.70
2022-12-05T09:50:24.139Z,45.47
2022-12-05T09:55:33.333Z,44.03
2022-12-05T10:00:34.996Z,37.00
2022-12-05T10:05:43.296Z,40.95
2022-12-05T10:11:06.534Z,36.05
2022-12-05T10:16:32.481Z,36.17
2022-12-05T10:21:39.547Z,36.40
2022-12-05T10:26:51.905Z,41.60
2022-12-05T10:32:02.425Z,33.95
2022-12-05T10:37:14.996Z,36.35
2022-12-05T10:42:28.114Z,32.63
2022-12-05T10:47:30.419Z,34.35
2022-12-05T10:52:32.199Z,31.73
2022-12-05T10:57:33.695Z,33.90
2022-12-05T11:02:35.291Z,42.83
2022-12-05T11:07:46.915Z,29.88
2022-12-05T11:12:49.875Z,31.33
2022-12-05T11:17:53.813Z,33.05
2022-12-05T11:22:56.537Z,29.58
2022-12-05T11:28:01.584Z,28.88
2022-12-05T11:33:20.961Z,29.27
2022-12-05T11:38:26.994Z,30.48
2022-12-05T11:43:28.400Z,28.43
2022-12-05T11:48:41.823Z,33.40
2022-12-05T11:53:58.480Z,32.63
2022-12-05T11:59:08.801Z,33.60
2022-12-05T12:04:35.076Z,29.48
2022-12-05T12:10:07.002Z,25.02
2022-12-05T12:15:25.149Z,26.25
2022-12-05T12:20:41.768Z,21.73
2022-12-05T12:25:49.193Z,25.90
2022-12-05T12:30:50.630Z,26.83
2022-12-05T12:36:18.865Z,23.58
2022-12-05T12:41:44.111Z,31.67
2022-12-05T12:47:04.405Z,25.73
2022-12-05T12:52:13.633Z,29.75
2022-12-05T12:57:44.585Z,29.48
2022-12-05T13:02:54.431Z,29.75
2022-12-05T13:08:00.370Z,27.13
2022-12-05T13:13:03.934Z,26.50
2022-12-05T13:18:06.258Z,31.17
2022-12-05T13:23:16.306Z,32.17
2022-12-05T13:28:25.712Z,35.40
2022-12-05T13:33:41.811Z,27.35
2022-12-05T13:38:43.310Z,23.17
2022-12-05T13:44:05.418Z,28.90
2022-12-05T13:49:31.465Z,19.58
2022-12-05T13:54:35.301Z,20.30
2022-12-05T14:00:08.114Z,19.10
2022-12-05T14:05:16.176Z,19.00
2022-12-05T14:10:42.006Z,19.90
2022-12-05T14:15:45.584Z,21.10
2022-12-05T14:20:54.141Z,25.42
2022-12-05T14:26:14.122Z,22.33
2022-12-05T14:31:31.884Z,21.40
2022-12-05T14:36:33.537Z,19.50
2022-12-05T14:41:35.700Z,20.38
2022-12-05T14:46:37.406Z,23.17
2022-12-05T14:51:42.012Z,27.48
2022-12-05T14:56:50.841Z,25.88
2022-12-05T15:01:57.001Z,22.10
2022-12-05T15:07:08.299Z,25.98
2022-12-05T15:12:25.009Z,23.23
2022-12-05T15:17:37.861Z,22.50
2022-12-05T15:22:39.413Z,24.85
2022-12-05T15:27:40.921Z,23.73
2022-12-05T15:32:42.477Z,25.60
2022-12-05T15:37:53.174Z,19.75
2022-12-05T15:42:57.702Z,21.50
2022-12-05T15:48:05.358Z,21.35
2022-12-05T15:53:33.141Z,20.60
2022-12-05T15:58:36.974Z,20.92
2022-12-05T16:03:47.443Z,21.70
2022-12-05T16:08:51.783Z,20.83
2022-12-05T16:14:00.953Z,19.35
2022-12-05T16:19:16.512Z,23.02
2022-12-05T16:24:21.983Z,25.70
2022-12-05T16:29:29.330Z,25.40
2022-12-05T16:34:33.827Z,23.92
2022-12-05T16:39:35.416Z,22.90
2022-12-05T16:44:45.882Z,30.25
2022-12-05T16:49:47.581Z,26.55
2022-12-05T16:54:49.518Z,29.92
2022-12-05T16:59:51.329Z,30.35
2022-12-05T17:04:52.940Z,27.55
2022-12-05T17:09:54.744Z,27.55
2022-12-05T17:14:56.667Z,25.38
2022-12-05T17:19:58.466Z,25.15
2022-12-05T17:25:00.442Z,26.02
